createdAt,value
2022-10-11T00:21:57.957Z,71
2022-10-11T00:51:09.475Z,71
2022-10-11T01:20:08.456Z,74
2022-10-11T01:49:11.077Z,74
2022-10-11T02:18:24.401Z,74
2022-10-11T02:47:36.651Z,73
2022-10-11T03:17:34.872Z,73
2022-10-11T03:45:45.212Z,73
2022-10-11T04:15:08.845Z,75
2022-10-11T04:44:32.826Z,75
2022-10-11T05:13:56.090Z,74
2022-10-11T05:43:15.778Z,74
2022-10-11T06:12:26.590Z,74
2022-10-11T06:41:37.216Z,75
2022-10-11T07:10:57.329Z,76
2022-10-11T07:40:18.881Z,77
2022-10-11T08:09:42.559Z,77
2022-10-11T08:38:53.597Z,76
2022-10-11T09:08:14.820Z,75
2022-10-11T09:37:38.688Z,73
2022-10-11T10:06:58.829Z,73
2022-10-11T10:36:18.229Z,74
2022-10-11T11:05:45.611Z,70
2022-10-11T11:35:00.124Z,69
2022-10-11T12:04:14.767Z,67
2022-10-11T12:33:24.438Z,66
2022-10-11T13:02:44.099Z,67
2022-10-11T13:31:56.822Z,68
2022-10-11T14:00:38.650Z,67
2022-10-11T14:29:43.903Z,68
2022-10-11T14:58:30.274Z,68
2022-10-11T15:27:40.974Z,68
2022-10-11T15:56:52.712Z,69
2022-10-11T16:26:15.165Z,70
2022-10-11T16:55:37.625Z,69
2022-10-11T17:24:55.538Z,70
2022-10-11T17:54:07.280Z,70
2022-10-11T18:23:27.156Z,71
2022-10-11T18:52:45.729Z,71
2022-10-11T19:22:06.672Z,71
2022-10-11T19:51:25.473Z,72
2022-10-11T20:20:48.136Z,71
2022-10-11T20:50:00.507Z,70
2022-10-11T21:19:22.676Z,70
2022-10-11T21:48:39.995Z,70
2022-10-11T22:17:54.737Z,70
2022-10-11T22:46:31.403Z,70
2022-10-11T23:15:39.622Z,70
2022-10-11T23:44:57.865Z,71
